sensor_id;sensor_type;location;lat;lon;timestamp;P1;durP1;ratioP1;P2;durP2;ratioP2
84984;SDS011;75299;50.018;20.014;2024-02-26T00:02:12;28.58;;;14.40;;
84984;SDS011;75299;50.018;20.014;2024-02-26T00:05:30;32.23;;;15.18;;
84984;SDS011;75299;50.018;20.014;2024-02-26T00:08:47;27.23;;;15.85;;
84984;SDS011;75299;50.018;20.014;2024-02-26T00:12:06;30.50;;;16.13;;
84984;SDS011;75299;50.018;20.014;2024-02-26T00:15:24;28.78;;;15.48;;
84984;SDS011;75299;50.018;20.014;2024-02-26T00:18:43;28.73;;;15.88;;
84984;SDS011;75299;50.018;20.014;2024-02-26T00:22:01;31.13;;;15.80;;
84984;SDS011;75299;50.018;20.014;2024-02-26T00:25:19;29.55;;;14.45;;
84984;SDS011;75299;50.018;20.014;2024-02-26T00:28:36;29.33;;;16.10;;
84984;SDS011;75299;50.018;20.014;2024-02-26T00:31:54;33.03;;;15.98;;
84984;SDS011;75299;50.018;20.014;2024-02-26T00:35:12;31.40;;;15.30;;
84984;SDS011;75299;50.018;20.014;2024-02-26T00:38:29;29.55;;;14.75;;
84984;SDS011;75299;50.018;20.014;2024-02-26T00:41:47;33.35;;;15.93;;
84984;SDS011;75299;50.018;20.014;2024-02-26T00:45:06;35.10;;;15.73;;
84984;SDS011;75299;50.018;20.014;2024-02-26T00:48:24;31.20;;;16.30;;
84984;SDS011;75299;50.018;20.014;2024-02-26T00:51:42;29.48;;;15.53;;
84984;SDS011;75299;50.018;20.014;2024-02-26T00:55:01;30.55;;;16.10;;
84984;SDS011;75299;50.018;20.014;2024-02-26T00:58:20;28.70;;;15.70;;
84984;SDS011;75299;50.018;20.014;2024-02-26T01:01:37;30.45;;;16.70;;
84984;SDS011;75299;50.018;20.014;2024-02-26T01:04:56;30.33;;;15.45;;
84984;SDS011;75299;50.018;20.014;2024-02-26T01:08:14;26.90;;;15.15;;
84984;SDS011;75299;50.018;20.014;2024-02-26T01:11:31;35.10;;;15.75;;
84984;SDS011;75299;50.018;20.014;2024-02-26T01:14:49;29.95;;;15.68;;
84984;SDS011;75299;50.018;20.014;2024-02-26T01:18:07;27.55;;;15.85;;
84984;SDS011;75299;50.018;20.014;2024-02-26T01:21:25;29.80;;;15.85;;
84984;SDS011;75299;50.018;20.014;2024-02-26T01:24:43;34.00;;;15.40;;
84984;SDS011;75299;50.018;20.014;2024-02-26T01:28:00;30.50;;;15.75;;
84984;SDS011;75299;50.018;20.014;2024-02-26T01:31:19;34.30;;;16.85;;
84984;SDS011;75299;50.018;20.014;2024-02-26T01:34:36;29.43;;;15.58;;
84984;SDS011;75299;50.018;20.014;2024-02-26T01:37:54;26.53;;;15.25;;
84984;SDS011;75299;50.018;20.014;2024-02-26T01:41:13;27.45;;;15.78;;
84984;SDS011;75299;50.018;20.014;2024-02-26T01:44:30;27.63;;;15.68;;
84984;SDS011;75299;50.018;20.014;2024-02-26T01:47:49;33.30;;;15.58;;
84984;SDS011;75299;50.018;20.014;2024-02-26T01:51:07;25.90;;;15.20;;
84984;SDS011;75299;50.018;20.014;2024-02-26T01:54:25;32.18;;;14.68;;
84984;SDS011;75299;50.018;20.014;2024-02-26T01:57:44;28.45;;;14.35;;
84984;SDS011;75299;50.018;20.014;2024-02-26T02:01:03;30.20;;;14.25;;
84984;SDS011;75299;50.018;20.014;2024-02-26T02:04:21;26.65;;;14.60;;
84984;SDS011;75299;50.018;20.014;2024-02-26T02:07:40;28.88;;;14.30;;
84984;SDS011;75299;50.018;20.014;2024-02-26T02:10:59;34.63;;;15.48;;
84984;SDS011;75299;50.018;20.014;2024-02-26T02:14:19;25.08;;;14.03;;
84984;SDS011;75299;50.018;20.014;2024-02-26T02:17:38;27.08;;;13.93;;
84984;SDS011;75299;50.018;20.014;2024-02-26T02:20:56;33.25;;;16.98;;
84984;SDS011;75299;50.018;20.014;2024-02-26T02:24:14;32.30;;;16.33;;
84984;SDS011;75299;50.018;20.014;2024-02-26T02:27:32;30.15;;;16.93;;
84984;SDS011;75299;50.018;20.014;2024-02-26T02:30:49;30.63;;;17.45;;
84984;SDS011;75299;50.018;20.014;2024-02-26T02:34:09;31.53;;;17.73;;
84984;SDS011;75299;50.018;20.014;2024-02-26T02:37:27;28.95;;;14.95;;
84984;SDS011;75299;50.018;20.014;2024-02-26T02:40:45;36.95;;;15.68;;
84984;SDS011;75299;50.018;20.014;2024-02-26T02:44:02;31.88;;;16.13;;
84984;SDS011;75299;50.018;20.014;2024-02-26T02:47:20;35.38;;;16.30;;
84984;SDS011;75299;50.018;20.014;2024-02-26T02:50:38;31.18;;;16.58;;
84984;SDS011;75299;50.018;20.014;2024-02-26T02:53:55;27.60;;;16.08;;
84984;SDS011;75299;50.018;20.014;2024-02-26T02:57:13;35.25;;;16.38;;
84984;SDS011;75299;50.018;20.014;2024-02-26T03:00:31;30.00;;;14.98;;
84984;SDS011;75299;50.018;20.014;2024-02-26T03:03:48;30.25;;;15.15;;
84984;SDS011;75299;50.018;20.014;2024-02-26T03:07:06;28.93;;;16.10;;
84984;SDS011;75299;50.018;20.014;2024-02-26T03:10:26;23.55;;;14.60;;
84984;SDS011;75299;50.018;20.014;2024-02-26T03:13:44;25.93;;;15.23;;
84984;SDS011;75299;50.018;20.014;2024-02-26T03:17:02;28.35;;;16.13;;
84984;SDS011;75299;50.018;20.014;2024-02-26T03:20:20;35.08;;;16.28;;
84984;SDS011;75299;50.018;20.014;2024-02-26T03:23:38;29.73;;;15.75;;
84984;SDS011;75299;50.018;20.014;2024-02-26T03:26:55;30.70;;;15.50;;
84984;SDS011;75299;50.018;20.014;2024-02-26T03:30:15;36.63;;;17.45;;
84984;SDS011;75299;50.018;20.014;2024-02-26T03:33:33;29.63;;;16.25;;
84984;SDS011;75299;50.018;20.014;2024-02-26T03:36:52;28.98;;;15.45;;
84984;SDS011;75299;50.018;20.014;2024-02-26T03:40:10;35.85;;;19.33;;
84984;SDS011;75299;50.018;20.014;2024-02-26T03:43:29;28.23;;;15.90;;
84984;SDS011;75299;50.018;20.014;2024-02-26T03:46:47;33.25;;;17.68;;
84984;SDS011;75299;50.018;20.014;2024-02-26T03:50:05;39.63;;;18.73;;
84984;SDS011;75299;50.018;20.014;2024-02-26T03:53:24;37.35;;;18.40;;
84984;SDS011;75299;50.018;20.014;2024-02-26T03:56:42;35.23;;;17.08;;
84984;SDS011;75299;50.018;20.014;2024-02-26T04:00:00;33.60;;;17.83;;
84984;SDS011;75299;50.018;20.014;2024-02-26T04:03:19;31.95;;;18.18;;
84984;SDS011;75299;50.018;20.014;2024-02-26T04:06:36;36.00;;;18.03;;
84984;SDS011;75299;50.018;20.014;2024-02-26T04:09:54;32.50;;;17.15;;
84984;SDS011;75299;50.018;20.014;2024-02-26T04:13:13;45.03;;;23.90;;
84984;SDS011;75299;50.018;20.014;2024-02-26T04:16:31;39.05;;;19.38;;
84984;SDS011;75299;50.018;20.014;2024-02-26T04:19:48;32.75;;;16.90;;
84984;SDS011;75299;50.018;20.014;2024-02-26T04:23:06;26.23;;;15.33;;
84984;SDS011;75299;50.018;20.014;2024-02-26T04:26:24;29.03;;;15.25;;
84984;SDS011;75299;50.018;20.014;2024-02-26T04:29:42;26.70;;;14.25;;
84984;SDS011;75299;50.018;20.014;2024-02-26T04:32:59;26.43;;;15.53;;
84984;SDS011;75299;50.018;20.014;2024-02-26T04:36:18;32.88;;;16.68;;
84984;SDS011;75299;50.018;20.014;2024-02-26T04:39:36;29.55;;;16.53;;
84984;SDS011;75299;50.018;20.014;2024-02-26T04:42:55;29.83;;;16.93;;
84984;SDS011;75299;50.018;20.014;2024-02-26T04:46:13;34.63;;;16.70;;
84984;SDS011;75299;50.018;20.014;2024-02-26T04:49:31;29.68;;;16.20;;
84984;SDS011;75299;50.018;20.014;2024-02-26T04:52:49;32.65;;;15.18;;
84984;SDS011;75299;50.018;20.014;2024-02-26T04:56:06;31.38;;;15.53;;
84984;SDS011;75299;50.018;20.014;2024-02-26T04:59:24;26.10;;;15.23;;
84984;SDS011;75299;50.018;20.014;2024-02-26T05:02:42;29.45;;;15.43;;
84984;SDS011;75299;50.018;20.014;2024-02-26T05:06:00;31.13;;;17.15;;
84984;SDS011;75299;50.018;20.014;2024-02-26T05:09:18;34.93;;;16.18;;
84984;SDS011;75299;50.018;20.014;2024-02-26T05:12:36;35.83;;;16.68;;
84984;SDS011;75299;50.018;20.014;2024-02-26T05:15:54;84.13;;;20.25;;
84984;SDS011;75299;50.018;20.014;2024-02-26T05:19:12;39.10;;;17.38;;
84984;SDS011;75299;50.018;20.014;2024-02-26T05:22:30;34.53;;;17.00;;
84984;SDS011;75299;50.018;20.014;2024-02-26T05:25:48;31.73;;;16.43;;
84984;SDS011;75299;50.018;20.014;2024-02-26T05:29:06;33.20;;;16.68;;
84984;SDS011;75299;50.018;20.014;2024-02-26T05:32:24;30.73;;;15.90;;
84984;SDS011;75299;50.018;20.014;2024-02-26T05:35:42;36.48;;;16.43;;
84984;SDS011;75299;50.018;20.014;2024-02-26T05:39:00;30.13;;;15.25;;
84984;SDS011;75299;50.018;20.014;2024-02-26T05:42:21;37.63;;;16.83;;
84984;SDS011;75299;50.018;20.014;2024-02-26T05:45:39;29.13;;;16.03;;
84984;SDS011;75299;50.018;20.014;2024-02-26T05:48:57;38.83;;;16.43;;
84984;SDS011;75299;50.018;20.014;2024-02-26T05:52:15;29.00;;;17.25;;
84984;SDS011;75299;50.018;20.014;2024-02-26T05:55:33;33.78;;;17.95;;
84984;SDS011;75299;50.018;20.014;2024-02-26T05:58:50;38.13;;;18.55;;
84984;SDS011;75299;50.018;20.014;2024-02-26T06:02:08;60.50;;;21.75;;
84984;SDS011;75299;50.018;20.014;2024-02-26T06:05:25;174.80;;;25.65;;
84984;SDS011;75299;50.018;20.014;2024-02-26T06:08:43;49.48;;;18.23;;
84984;SDS011;75299;50.018;20.014;2024-02-26T06:12:01;44.80;;;17.15;;
84984;SDS011;75299;50.018;20.014;2024-02-26T06:15:19;37.80;;;17.35;;
84984;SDS011;75299;50.018;20.014;2024-02-26T06:18:37;29.48;;;16.80;;
84984;SDS011;75299;50.018;20.014;2024-02-26T06:21:55;35.15;;;17.18;;
84984;SDS011;75299;50.018;20.014;2024-02-26T06:25:13;27.10;;;16.03;;
84984;SDS011;75299;50.018;20.014;2024-02-26T06:28:30;37.33;;;19.53;;
84984;SDS011;75299;50.018;20.014;2024-02-26T06:31:48;31.03;;;17.20;;
84984;SDS011;75299;50.018;20.014;2024-02-26T06:35:06;42.20;;;19.70;;
84984;SDS011;75299;50.018;20.014;2024-02-26T06:38:24;45.65;;;21.60;;
84984;SDS011;75299;50.018;20.014;2024-02-26T06:41:42;44.05;;;20.15;;
84984;SDS011;75299;50.018;20.014;2024-02-26T06:45:02;38.75;;;18.80;;
84984;SDS011;75299;50.018;20.014;2024-02-26T06:48:22;36.33;;;22.58;;
84984;SDS011;75299;50.018;20.014;2024-02-26T06:51:40;50.30;;;26.65;;
84984;SDS011;75299;50.018;20.014;2024-02-26T06:54:58;34.95;;;20.33;;
84984;SDS011;75299;50.018;20.014;2024-02-26T06:58:16;38.25;;;19.88;;
84984;SDS011;75299;50.018;20.014;2024-02-26T07:01:34;34.28;;;19.45;;
84984;SDS011;75299;50.018;20.014;2024-02-26T07:04:53;32.00;;;18.90;;
84984;SDS011;75299;50.018;20.014;2024-02-26T07:08:12;32.90;;;20.33;;
84984;SDS011;75299;50.018;20.014;2024-02-26T07:11:30;41.93;;;23.40;;
84984;SDS011;75299;50.018;20.014;2024-02-26T07:14:49;38.70;;;21.38;;
84984;SDS011;75299;50.018;20.014;2024-02-26T07:18:07;32.65;;;19.48;;
84984;SDS011;75299;50.018;20.014;2024-02-26T07:21:28;37.68;;;20.15;;
84984;SDS011;75299;50.018;20.014;2024-02-26T07:24:45;30.75;;;18.88;;
84984;SDS011;75299;50.018;20.014;2024-02-26T07:28:04;31.28;;;17.98;;
84984;SDS011;75299;50.018;20.014;2024-02-26T07:31:21;35.20;;;19.55;;
84984;SDS011;75299;50.018;20.014;2024-02-26T07:34:39;34.78;;;18.78;;
84984;SDS011;75299;50.018;20.014;2024-02-26T07:37:58;30.73;;;18.13;;
84984;SDS011;75299;50.018;20.014;2024-02-26T07:41:18;32.03;;;17.58;;
84984;SDS011;75299;50.018;20.014;2024-02-26T07:44:37;35.15;;;19.45;;
84984;SDS011;75299;50.018;20.014;2024-02-26T07:47:55;36.28;;;19.90;;
84984;SDS011;75299;50.018;20.014;2024-02-26T07:51:14;29.18;;;17.20;;
84984;SDS011;75299;50.018;20.014;2024-02-26T07:54:33;30.80;;;17.73;;
84984;SDS011;75299;50.018;20.014;2024-02-26T07:57:51;26.05;;;16.65;;
84984;SDS011;75299;50.018;20.014;2024-02-26T08:01:10;28.30;;;16.75;;
84984;SDS011;75299;50.018;20.014;2024-02-26T08:04:29;26.63;;;16.58;;
84984;SDS011;75299;50.018;20.014;2024-02-26T08:07:47;37.45;;;19.70;;
84984;SDS011;75299;50.018;20.014;2024-02-26T08:11:05;32.10;;;20.08;;
84984;SDS011;75299;50.018;20.014;2024-02-26T08:14:23;24.28;;;15.50;;
84984;SDS011;75299;50.018;20.014;2024-02-26T08:17:40;23.08;;;13.55;;
84984;SDS011;75299;50.018;20.014;2024-02-26T08:20:58;22.38;;;13.13;;
84984;SDS011;75299;50.018;20.014;2024-02-26T08:24:16;17.43;;;11.63;;
84984;SDS011;75299;50.018;20.014;2024-02-26T08:27:34;31.55;;;17.95;;
84984;SDS011;75299;50.018;20.014;2024-02-26T08:30:52;19.33;;;11.03;;
84984;SDS011;75299;50.018;20.014;2024-02-26T08:34:09;26.35;;;11.20;;
84984;SDS011;75299;50.018;20.014;2024-02-26T08:37:27;27.43;;;11.03;;
84984;SDS011;75299;50.018;20.014;2024-02-26T08:40:45;19.88;;;11.18;;
84984;SDS011;75299;50.018;20.014;2024-02-26T08:44:02;20.63;;;11.63;;
84984;SDS011;75299;50.018;20.014;2024-02-26T08:47:20;25.00;;;12.15;;
84984;SDS011;75299;50.018;20.014;2024-02-26T08:50:38;44.63;;;22.63;;
84984;SDS011;75299;50.018;20.014;2024-02-26T08:53:56;42.65;;;23.00;;
84984;SDS011;75299;50.018;20.014;2024-02-26T08:57:13;29.93;;;16.78;;
84984;SDS011;75299;50.018;20.014;2024-02-26T09:00:31;33.68;;;17.43;;
84984;SDS011;75299;50.018;20.014;2024-02-26T09:03:49;32.40;;;19.28;;
84984;SDS011;75299;50.018;20.014;2024-02-26T09:07:06;31.80;;;17.23;;
84984;SDS011;75299;50.018;20.014;2024-02-26T09:10:24;28.90;;;14.90;;
84984;SDS011;75299;50.018;20.014;2024-02-26T09:13:44;94.53;;;59.33;;
84984;SDS011;75299;50.018;20.014;2024-02-26T09:17:01;34.90;;;20.63;;
84984;SDS011;75299;50.018;20.014;2024-02-26T09:20:19;48.38;;;25.53;;
84984;SDS011;75299;50.018;20.014;2024-02-26T09:23:37;22.38;;;13.15;;
84984;SDS011;75299;50.018;20.014;2024-02-26T09:26:55;23.75;;;13.90;;
84984;SDS011;75299;50.018;20.014;2024-02-26T09:30:13;26.18;;;14.00;;
84984;SDS011;75299;50.018;20.014;2024-02-26T09:33:31;31.75;;;12.98;;
84984;SDS011;75299;50.018;20.014;2024-02-26T09:36:50;19.68;;;9.83;;
84984;SDS011;75299;50.018;20.014;2024-02-26T09:40:10;19.75;;;10.58;;
84984;SDS011;75299;50.018;20.014;2024-02-26T09:43:28;37.23;;;24.25;;
84984;SDS011;75299;50.018;20.014;2024-02-26T09:46:50;44.48;;;24.90;;
84984;SDS011;75299;50.018;20.014;2024-02-26T09:50:10;25.73;;;15.53;;
84984;SDS011;75299;50.018;20.014;2024-02-26T09:53:31;15.88;;;8.15;;
84984;SDS011;75299;50.018;20.014;2024-02-26T09:56:51;16.75;;;7.95;;
84984;SDS011;75299;50.018;20.014;2024-02-26T10:00:12;13.83;;;7.85;;
84984;SDS011;75299;50.018;20.014;2024-02-26T10:03:36;13.95;;;6.65;;
84984;SDS011;75299;50.018;20.014;2024-02-26T10:06:55;15.98;;;6.00;;
84984;SDS011;75299;50.018;20.014;2024-02-26T10:10:13;13.25;;;8.25;;
84984;SDS011;75299;50.018;20.014;2024-02-26T10:13:31;19.70;;;12.48;;
84984;SDS011;75299;50.018;20.014;2024-02-26T10:16:49;12.85;;;5.48;;
84984;SDS011;75299;50.018;20.014;2024-02-26T10:20:18;8.38;;;4.50;;
84984;SDS011;75299;50.018;20.014;2024-02-26T10:23:40;11.38;;;5.60;;
84984;SDS011;75299;50.018;20.014;2024-02-26T10:26:58;7.20;;;3.85;;
84984;SDS011;75299;50.018;20.014;2024-02-26T10:30:18;8.75;;;3.70;;
84984;SDS011;75299;50.018;20.014;2024-02-26T10:33:36;9.83;;;5.15;;
84984;SDS011;75299;50.018;20.014;2024-02-26T10:36:55;12.88;;;8.50;;
84984;SDS011;75299;50.018;20.014;2024-02-26T10:40:13;13.48;;;7.60;;
84984;SDS011;75299;50.018;20.014;2024-02-26T10:43:31;6.38;;;2.95;;
84984;SDS011;75299;50.018;20.014;2024-02-26T10:46:48;5.95;;;2.48;;
84984;SDS011;75299;50.018;20.014;2024-02-26T10:50:07;4.60;;;2.63;;
84984;SDS011;75299;50.018;20.014;2024-02-26T10:53:28;4.20;;;2.43;;
84984;SDS011;75299;50.018;20.014;2024-02-26T10:56:45;5.75;;;2.40;;
84984;SDS011;75299;50.018;20.014;2024-02-26T11:00:04;2.93;;;2.20;;
84984;SDS011;75299;50.018;20.014;2024-02-26T11:03:24;4.15;;;2.25;;
84984;SDS011;75299;50.018;20.014;2024-02-26T11:06:43;3.43;;;1.98;;
84984;SDS011;75299;50.018;20.014;2024-02-26T11:10:04;8.50;;;5.48;;
84984;SDS011;75299;50.018;20.014;2024-02-26T11:13:26;14.88;;;8.68;;
84984;SDS011;75299;50.018;20.014;2024-02-26T11:16:47;2.88;;;2.00;;
84984;SDS011;75299;50.018;20.014;2024-02-26T11:20:05;3.75;;;2.25;;
84984;SDS011;75299;50.018;20.014;2024-02-26T11:23:26;3.50;;;2.20;;
84984;SDS011;75299;50.018;20.014;2024-02-26T11:26:45;4.75;;;2.23;;
84984;SDS011;75299;50.018;20.014;2024-02-26T11:30:08;2.98;;;2.10;;
84984;SDS011;75299;50.018;20.014;2024-02-26T11:33:27;7.33;;;3.35;;
84984;SDS011;75299;50.018;20.014;2024-02-26T11:36:45;3.98;;;2.40;;
84984;SDS011;75299;50.018;20.014;2024-02-26T11:40:03;49.55;;;29.08;;
84984;SDS011;75299;50.018;20.014;2024-02-26T11:43:25;11.00;;;5.50;;
84984;SDS011;75299;50.018;20.014;2024-02-26T11:47:18;5.03;;;3.25;;
84984;SDS011;75299;50.018;20.014;2024-02-26T11:50:36;4.08;;;2.25;;
84984;SDS011;75299;50.018;20.014;2024-02-26T11:53:54;4.30;;;2.73;;
84984;SDS011;75299;50.018;20.014;2024-02-26T12:00:43;3.53;;;1.90;;
84984;SDS011;75299;50.018;20.014;2024-02-26T12:04:01;3.65;;;1.93;;
84984;SDS011;75299;50.018;20.014;2024-02-26T12:07:19;2.70;;;2.10;;
84984;SDS011;75299;50.018;20.014;2024-02-26T12:10:39;4.08;;;2.18;;
84984;SDS011;75299;50.018;20.014;2024-02-26T12:13:57;4.00;;;2.33;;
84984;SDS011;75299;50.018;20.014;2024-02-26T12:17:18;3.05;;;2.10;;
84984;SDS011;75299;50.018;20.014;2024-02-26T12:20:38;5.63;;;2.63;;
84984;SDS011;75299;50.018;20.014;2024-02-26T12:23:56;3.88;;;2.45;;
84984;SDS011;75299;50.018;20.014;2024-02-26T12:27:28;5.58;;;1.90;;
84984;SDS011;75299;50.018;20.014;2024-02-26T12:30:45;12.90;;;2.40;;
84984;SDS011;75299;50.018;20.014;2024-02-26T12:34:03;7.28;;;2.40;;
84984;SDS011;75299;50.018;20.014;2024-02-26T12:37:24;4.48;;;2.43;;
84984;SDS011;75299;50.018;20.014;2024-02-26T12:40:45;2.65;;;2.30;;
84984;SDS011;75299;50.018;20.014;2024-02-26T12:44:03;2.35;;;2.15;;
84984;SDS011;75299;50.018;20.014;2024-02-26T12:47:22;4.60;;;2.65;;
84984;SDS011;75299;50.018;20.014;2024-02-26T12:50:39;4.33;;;2.48;;
84984;SDS011;75299;50.018;20.014;2024-02-26T12:54:00;6.30;;;2.78;;
84984;SDS011;75299;50.018;20.014;2024-02-26T12:57:18;3.13;;;2.60;;
84984;SDS011;75299;50.018;20.014;2024-02-26T13:00:38;5.43;;;2.70;;
84984;SDS011;75299;50.018;20.014;2024-02-26T13:03:57;3.68;;;2.83;;
84984;SDS011;75299;50.018;20.014;2024-02-26T13:07:15;4.43;;;3.15;;
84984;SDS011;75299;50.018;20.014;2024-02-26T13:10:33;8.83;;;5.05;;
84984;SDS011;75299;50.018;20.014;2024-02-26T13:13:51;8.23;;;5.05;;
84984;SDS011;75299;50.018;20.014;2024-02-26T13:17:11;6.58;;;4.45;;
84984;SDS011;75299;50.018;20.014;2024-02-26T13:20:30;6.63;;;4.03;;
84984;SDS011;75299;50.018;20.014;2024-02-26T13:23:51;5.28;;;4.13;;
84984;SDS011;75299;50.018;20.014;2024-02-26T13:27:09;6.75;;;4.18;;
84984;SDS011;75299;50.018;20.014;2024-02-26T13:30:26;4.78;;;4.08;;
84984;SDS011;75299;50.018;20.014;2024-02-26T13:33:45;5.35;;;4.10;;
84984;SDS011;75299;50.018;20.014;2024-02-26T13:37:04;7.18;;;4.63;;
84984;SDS011;75299;50.018;20.014;2024-02-26T13:40:21;8.05;;;5.20;;
84984;SDS011;75299;50.018;20.014;2024-02-26T13:43:39;6.90;;;4.40;;
84984;SDS011;75299;50.018;20.014;2024-02-26T13:46:56;7.93;;;4.98;;
84984;SDS011;75299;50.018;20.014;2024-02-26T13:50:14;7.65;;;4.80;;
84984;SDS011;75299;50.018;20.014;2024-02-26T13:53:34;6.93;;;5.00;;
84984;SDS011;75299;50.018;20.014;2024-02-26T13:56:52;6.40;;;5.20;;
84984;SDS011;75299;50.018;20.014;2024-02-26T14:00:10;6.03;;;5.18;;
84984;SDS011;75299;50.018;20.014;2024-02-26T14:03:30;6.48;;;5.30;;
84984;SDS011;75299;50.018;20.014;2024-02-26T14:06:48;7.20;;;6.18;;
84984;SDS011;75299;50.018;20.014;2024-02-26T14:10:07;10.13;;;6.88;;
84984;SDS011;75299;50.018;20.014;2024-02-26T14:13:25;9.95;;;7.08;;
84984;SDS011;75299;50.018;20.014;2024-02-26T14:16:44;10.60;;;7.55;;
84984;SDS011;75299;50.018;20.014;2024-02-26T14:20:01;10.98;;;7.38;;
84984;SDS011;75299;50.018;20.014;2024-02-26T14:23:21;9.03;;;7.48;;
84984;SDS011;75299;50.018;20.014;2024-02-26T14:26:39;10.15;;;7.38;;
84984;SDS011;75299;50.018;20.014;2024-02-26T14:29:57;8.95;;;7.25;;
84984;SDS011;75299;50.018;20.014;2024-02-26T14:33:15;22.98;;;13.45;;
84984;SDS011;75299;50.018;20.014;2024-02-26T14:36:33;11.38;;;7.60;;
84984;SDS011;75299;50.018;20.014;2024-02-26T14:39:50;10.48;;;7.93;;
84984;SDS011;75299;50.018;20.014;2024-02-26T14:43:07;11.53;;;7.98;;
84984;SDS011;75299;50.018;20.014;2024-02-26T14:46:25;10.05;;;8.15;;
84984;SDS011;75299;50.018;20.014;2024-02-26T14:49:43;11.60;;;8.13;;
84984;SDS011;75299;50.018;20.014;2024-02-26T14:53:00;13.70;;;8.70;;
84984;SDS011;75299;50.018;20.014;2024-02-26T14:56:18;11.33;;;8.55;;
84984;SDS011;75299;50.018;20.014;2024-02-26T14:59:36;15.38;;;11.18;;
84984;SDS011;75299;50.018;20.014;2024-02-26T15:02:53;12.93;;;9.43;;
84984;SDS011;75299;50.018;20.014;2024-02-26T15:06:11;12.35;;;9.40;;
84984;SDS011;75299;50.018;20.014;2024-02-26T15:09:29;18.58;;;10.90;;
84984;SDS011;75299;50.018;20.014;2024-02-26T15:12:48;13.80;;;8.95;;
84984;SDS011;75299;50.018;20.014;2024-02-26T15:16:06;19.80;;;15.60;;
84984;SDS011;75299;50.018;20.014;2024-02-26T15:19:26;15.48;;;10.80;;
84984;SDS011;75299;50.018;20.014;2024-02-26T15:22:44;14.08;;;10.40;;
84984;SDS011;75299;50.018;20.014;2024-02-26T15:26:01;16.30;;;10.63;;
84984;SDS011;75299;50.018;20.014;2024-02-26T15:29:19;13.48;;;10.40;;
84984;SDS011;75299;50.018;20.014;2024-02-26T15:32:37;13.68;;;10.83;;
84984;SDS011;75299;50.018;20.014;2024-02-26T15:35:55;15.45;;;11.18;;
84984;SDS011;75299;50.018;20.014;2024-02-26T15:39:13;16.48;;;10.80;;
84984;SDS011;75299;50.018;20.014;2024-02-26T15:42:32;14.60;;;10.38;;
84984;SDS011;75299;50.018;20.014;2024-02-26T15:49:15;15.20;;;10.95;;
84984;SDS011;75299;50.018;20.014;2024-02-26T15:52:33;15.35;;;11.00;;
84984;SDS011;75299;50.018;20.014;2024-02-26T15:55:50;16.28;;;10.98;;
84984;SDS011;75299;50.018;20.014;2024-02-26T15:59:08;21.08;;;12.18;;
84984;SDS011;75299;50.018;20.014;2024-02-26T16:02:27;18.83;;;12.35;;
84984;SDS011;75299;50.018;20.014;2024-02-26T16:05:50;22.40;;;12.90;;
84984;SDS011;75299;50.018;20.014;2024-02-26T16:09:17;17.95;;;13.13;;
84984;SDS011;75299;50.018;20.014;2024-02-26T16:12:41;19.40;;;13.65;;
84984;SDS011;75299;50.018;20.014;2024-02-26T16:16:03;20.65;;;13.78;;
84984;SDS011;75299;50.018;20.014;2024-02-26T16:19:27;23.65;;;14.95;;
84984;SDS011;75299;50.018;20.014;2024-02-26T16:22:46;22.95;;;14.13;;
84984;SDS011;75299;50.018;20.014;2024-02-26T16:26:04;26.33;;;14.53;;
84984;SDS011;75299;50.018;20.014;2024-02-26T16:29:23;28.15;;;16.48;;
84984;SDS011;75299;50.018;20.014;2024-02-26T16:32:41;26.38;;;15.43;;
84984;SDS011;75299;50.018;20.014;2024-02-26T16:35:59;27.68;;;15.05;;
84984;SDS011;75299;50.018;20.014;2024-02-26T16:39:17;23.65;;;15.50;;
84984;SDS011;75299;50.018;20.014;2024-02-26T16:42:39;26.95;;;16.23;;
84984;SDS011;75299;50.018;20.014;2024-02-26T16:45:57;22.13;;;15.18;;
84984;SDS011;75299;50.018;20.014;2024-02-26T16:49:16;24.20;;;15.13;;
84984;SDS011;75299;50.018;20.014;2024-02-26T16:52:34;22.33;;;15.23;;
84984;SDS011;75299;50.018;20.014;2024-02-26T16:55:52;26.15;;;15.70;;
84984;SDS011;75299;50.018;20.014;2024-02-26T16:59:10;22.98;;;15.50;;
84984;SDS011;75299;50.018;20.014;2024-02-26T17:02:28;24.23;;;19.08;;
84984;SDS011;75299;50.018;20.014;2024-02-26T17:05:46;26.25;;;16.13;;
84984;SDS011;75299;50.018;20.014;2024-02-26T17:09:04;23.23;;;15.95;;
84984;SDS011;75299;50.018;20.014;2024-02-26T17:12:23;27.50;;;16.65;;
84984;SDS011;75299;50.018;20.014;2024-02-26T17:15:41;25.53;;;15.35;;
84984;SDS011;75299;50.018;20.014;2024-02-26T17:19:00;30.88;;;16.63;;
84984;SDS011;75299;50.018;20.014;2024-02-26T17:22:18;27.03;;;16.43;;
84984;SDS011;75299;50.018;20.014;2024-02-26T17:25:35;30.48;;;16.20;;
84984;SDS011;75299;50.018;20.014;2024-02-26T17:28:53;26.23;;;16.30;;
84984;SDS011;75299;50.018;20.014;2024-02-26T17:32:13;24.70;;;16.08;;
84984;SDS011;75299;50.018;20.014;2024-02-26T17:35:30;27.18;;;16.53;;
84984;SDS011;75299;50.018;20.014;2024-02-26T17:38:48;30.55;;;17.88;;
84984;SDS011;75299;50.018;20.014;2024-02-26T17:42:06;31.73;;;17.55;;
84984;SDS011;75299;50.018;20.014;2024-02-26T17:45:24;30.00;;;17.95;;
84984;SDS011;75299;50.018;20.014;2024-02-26T17:48:43;28.05;;;17.98;;
84984;SDS011;75299;50.018;20.014;2024-02-26T17:52:02;26.23;;;16.40;;
84984;SDS011;75299;50.018;20.014;2024-02-26T17:55:24;21.93;;;15.80;;
84984;SDS011;75299;50.018;20.014;2024-02-26T17:58:50;40.15;;;29.03;;
84984;SDS011;75299;50.018;20.014;2024-02-26T18:02:08;28.08;;;17.85;;
84984;SDS011;75299;50.018;20.014;2024-02-26T18:05:26;31.95;;;17.95;;
84984;SDS011;75299;50.018;20.014;2024-02-26T18:08:44;29.58;;;18.08;;
84984;SDS011;75299;50.018;20.014;2024-02-26T18:12:02;27.30;;;17.30;;
84984;SDS011;75299;50.018;20.014;2024-02-26T18:15:21;24.78;;;17.35;;
84984;SDS011;75299;50.018;20.014;2024-02-26T18:18:39;29.80;;;18.53;;
84984;SDS011;75299;50.018;20.014;2024-02-26T18:21:57;30.23;;;19.85;;
84984;SDS011;75299;50.018;20.014;2024-02-26T18:25:16;25.40;;;17.75;;
84984;SDS011;75299;50.018;20.014;2024-02-26T18:28:35;26.85;;;16.98;;
84984;SDS011;75299;50.018;20.014;2024-02-26T18:31:52;25.63;;;17.45;;
84984;SDS011;75299;50.018;20.014;2024-02-26T18:35:10;25.60;;;17.83;;
84984;SDS011;75299;50.018;20.014;2024-02-26T18:38:28;28.55;;;20.25;;
84984;SDS011;75299;50.018;20.014;2024-02-26T18:41:45;28.18;;;19.03;;
84984;SDS011;75299;50.018;20.014;2024-02-26T18:45:06;31.55;;;18.00;;
84984;SDS011;75299;50.018;20.014;2024-02-26T18:48:24;31.60;;;19.08;;
84984;SDS011;75299;50.018;20.014;2024-02-26T18:51:44;29.58;;;17.15;;
84984;SDS011;75299;50.018;20.014;2024-02-26T18:55:02;28.23;;;18.23;;
84984;SDS011;75299;50.018;20.014;2024-02-26T18:58:20;29.83;;;17.93;;
84984;SDS011;75299;50.018;20.014;2024-02-26T19:01:38;30.68;;;17.40;;
84984;SDS011;75299;50.018;20.014;2024-02-26T19:04:56;30.25;;;17.98;;
84984;SDS011;75299;50.018;20.014;2024-02-26T19:08:13;31.95;;;17.63;;
84984;SDS011;75299;50.018;20.014;2024-02-26T19:11:31;26.95;;;17.55;;
84984;SDS011;75299;50.018;20.014;2024-02-26T19:14:49;32.68;;;19.73;;
84984;SDS011;75299;50.018;20.014;2024-02-26T19:18:07;39.80;;;20.68;;